createdAt,value
2022-07-30T00:00:32.499Z,77.47
2022-07-30T00:03:00.697Z,76.90
2022-07-30T00:05:29.171Z,76.42
2022-07-30T00:07:57.307Z,76.53
2022-07-30T00:10:25.385Z,77.16
2022-07-30T00:12:53.674Z,77.36
2022-07-30T00:15:21.981Z,76.22
2022-07-30T00:17:51.671Z,76.70
2022-07-30T00:20:20.120Z,76.08
2022-07-30T00:22:48.685Z,76.20
2022-07-30T00:25:19.082Z,77.21
2022-07-30T00:27:47.194Z,77.43
2022-07-30T00:30:16.106Z,77.38
2022-07-30T00:32:45.166Z,76.34
2022-07-30T00:35:17.118Z,75.91
2022-07-30T00:37:46.421Z,75.29
2022-07-30T00:40:15.042Z,76.11
2022-07-30T00:42:44.933Z,76.71
2022-07-30T00:45:14.463Z,76.44
2022-07-30T00:47:42.864Z,77.08
2022-07-30T00:50:13.228Z,76.82
2022-07-30T00:52:44.190Z,76.99
2022-07-30T00:55:14.253Z,76.57
2022-07-30T00:57:42.899Z,76.53
2022-07-30T01:00:15.171Z,76.76
2022-07-30T01:02:43.860Z,76.80
2022-07-30T01:05:11.967Z,76.37
2022-07-30T01:07:40.136Z,76.60
2022-07-30T01:10:12.328Z,76.94
2022-07-30T01:12:40.755Z,76.69
2022-07-30T01:15:10.989Z,76.92
2022-07-30T01:17:39.488Z,76.58
2022-07-30T01:20:10.853Z,76.16
2022-07-30T01:22:47.384Z,76.18
2022-07-30T01:25:20.968Z,76.45
2022-07-30T01:27:53.448Z,75.54
2022-07-30T01:30:23.117Z,76.25
2022-07-30T01:32:52.386Z,75.92
2022-07-30T01:35:21.785Z,75.35
2022-07-30T01:37:50.719Z,75.81
2022-07-30T01:40:19.643Z,76.04
2022-07-30T01:42:51.995Z,74.89
2022-07-30T01:45:20.347Z,76.34
2022-07-30T01:47:48.887Z,76.04
2022-07-30T01:50:17.666Z,76.28
2022-07-30T01:52:49.130Z,76.21
2022-07-30T01:55:19.089Z,74.99
2022-07-30T01:57:48.803Z,75.05
2022-07-30T02:00:18.952Z,75.17
2022-07-30T02:02:50.241Z,75.08
2022-07-30T02:05:18.358Z,75.06
2022-07-30T02:07:52.664Z,74.85
2022-07-30T02:10:30.202Z,75.60
2022-07-30T02:13:02.455Z,75.08
2022-07-30T02:15:35.761Z,75.01
2022-07-30T02:18:06.537Z,75.42
2022-07-30T02:20:38.497Z,76.11
2022-07-30T02:23:11.052Z,76.93
2022-07-30T02:25:43.847Z,77.24
2022-07-30T02:28:14.457Z,76.76
2022-07-30T02:30:55.153Z,77.36
2022-07-30T02:33:26.052Z,77.53
2022-07-30T02:35:55.811Z,77.67
2022-07-30T02:38:25.499Z,76.88
2022-07-30T02:40:54.667Z,76.86
2022-07-30T02:43:26.717Z,77.15
2022-07-30T02:45:57.123Z,76.75
2022-07-30T02:48:34.573Z,75.63
2022-07-30T02:51:04.561Z,75.08
2022-07-30T02:53:33.953Z,74.87
2022-07-30T02:56:02.523Z,75.74
2022-07-30T02:58:31.861Z,75.33
2022-07-30T03:01:03.154Z,76.50
2022-07-30T03:03:32.801Z,76.67
2022-07-30T03:06:02.398Z,75.67
2022-07-30T03:08:33.038Z,76.13
2022-07-30T03:11:01.813Z,75.60
2022-07-30T03:13:30.312Z,76.24
2022-07-30T03:16:01.314Z,76.25
2022-07-30T03:18:34.427Z,76.81
2022-07-30T03:21:02.773Z,77.19
2022-07-30T03:23:34.576Z,76.71
2022-07-30T03:26:04.612Z,77.30
2022-07-30T03:28:34.467Z,77.08
2022-07-30T03:31:04.739Z,76.55
2022-07-30T03:33:38.124Z,77.67
2022-07-30T03:36:08.484Z,78.75
2022-07-30T03:38:38.249Z,78.70
2022-07-30T03:41:08.061Z,78.34
2022-07-30T03:43:36.635Z,80.30
2022-07-30T03:46:07.842Z,80.10
2022-07-30T03:48:40.038Z,79.81
2022-07-30T03:51:10.204Z,80.08
2022-07-30T03:53:42.112Z,80.39
2022-07-30T03:56:29.047Z,79.97
2022-07-30T03:59:08.517Z,80.38
2022-07-30T04:01:41.472Z,80.60
2022-07-30T04:04:32.310Z,79.95
2022-07-30T04:07:01.100Z,80.75
2022-07-30T04:09:30.195Z,79.94
2022-07-30T04:11:59.634Z,80.19
2022-07-30T04:14:41.290Z,78.87
2022-07-30T04:17:14.224Z,79.16
2022-07-30T04:19:45.843Z,79.34
2022-07-30T04:22:18.290Z,79.43
2022-07-30T04:24:47.483Z,79.50
2022-07-30T04:27:16.285Z,79.36
2022-07-30T04:29:44.365Z,79.65
2022-07-30T04:32:14.077Z,80.03
2022-07-30T04:35:00.882Z,79.77
2022-07-30T04:37:51.590Z,79.91
2022-07-30T04:40:19.868Z,79.17
2022-07-30T04:42:48.204Z,78.80
2022-07-30T04:45:16.561Z,79.36
2022-07-30T04:47:55.190Z,79.78
2022-07-30T04:50:28.161Z,79.50
2022-07-30T04:52:57.692Z,79.06
2022-07-30T04:55:29.859Z,79.37
2022-07-30T04:57:59.304Z,79.52
2022-07-30T05:00:32.514Z,78.67
2022-07-30T05:03:04.668Z,79.13
2022-07-30T05:05:33.496Z,79.17
2022-07-30T05:08:02.856Z,79.98
2022-07-30T05:10:31.050Z,79.48
2022-07-30T05:12:59.611Z,78.98
2022-07-30T05:15:37.207Z,79.46
2022-07-30T05:18:10.756Z,79.64
2022-07-30T05:20:42.996Z,79.43
2022-07-30T05:23:21.371Z,79.91
2022-07-30T05:26:02.603Z,79.14
2022-07-30T05:28:36.472Z,79.90
2022-07-30T05:31:09.055Z,79.77
2022-07-30T05:33:43.474Z,79.69
2022-07-30T05:36:17.175Z,79.98
2022-07-30T05:38:45.607Z,79.73
2022-07-30T05:41:39.662Z,79.27
2022-07-30T05:44:12.313Z,79.03
2022-07-30T05:46:40.512Z,78.87
2022-07-30T05:49:10.639Z,79.46
2022-07-30T05:51:39.243Z,79.72
2022-07-30T05:54:07.572Z,79.49
2022-07-30T05:56:54.510Z,80.20
2022-07-30T05:59:37.038Z,80.11
2022-07-30T06:02:13.356Z,80.95
2022-07-30T06:04:57.109Z,80.20
2022-07-30T06:07:25.639Z,81.05
2022-07-30T06:10:00.424Z,81.54
2022-07-30T06:12:30.523Z,80.06
2022-07-30T06:14:59.385Z,80.80
2022-07-30T06:17:32.405Z,80.73
2022-07-30T06:20:29.651Z,80.25
2022-07-30T06:23:15.035Z,79.24
2022-07-30T06:26:01.726Z,79.39
2022-07-30T06:28:39.017Z,79.24
2022-07-30T06:31:16.809Z,78.58
2022-07-30T06:33:45.247Z,78.79
2022-07-30T06:36:14.827Z,77.97
2022-07-30T06:38:56.069Z,78.47
2022-07-30T06:41:37.789Z,78.32
2022-07-30T06:44:05.966Z,78.55
2022-07-30T06:46:54.290Z,77.91
2022-07-30T06:49:26.385Z,77.45
2022-07-30T06:51:56.337Z,78.71
2022-07-30T06:54:24.402Z,79.05
2022-07-30T06:57:24.824Z,78.61
2022-07-30T06:59:57.238Z,78.07
2022-07-30T07:02:42.696Z,77.65
2022-07-30T07:05:14.879Z,77.00
2022-07-30T07:07:58.208Z,76.57
2022-07-30T07:10:29.753Z,75.39
2022-07-30T07:13:10.525Z,75.46
2022-07-30T07:15:38.601Z,75.27
2022-07-30T07:18:12.722Z,76.63
2022-07-30T07:20:46.602Z,75.93
2022-07-30T07:23:16.142Z,74.72
2022-07-30T07:25:48.800Z,74.76
2022-07-30T07:28:17.816Z,74.06
2022-07-30T07:30:46.232Z,75.02
2022-07-30T07:33:16.523Z,75.30
2022-07-30T07:35:49.354Z,73.60
2022-07-30T07:38:25.337Z,73.60
2022-07-30T07:40:55.330Z,71.91
2022-07-30T07:43:25.170Z,72.09
2022-07-30T07:45:55.759Z,69.92
2022-07-30T07:48:24.245Z,71.58
2022-07-30T07:51:00.394Z,71.46
2022-07-30T07:53:33.108Z,70.92
2022-07-30T07:56:01.433Z,71.91
2022-07-30T07:58:31.027Z,71.01
2022-07-30T08:01:02.457Z,71.01
2022-07-30T08:03:49.266Z,68.68
2022-07-30T08:06:36.702Z,67.69
2022-07-30T08:09:43.550Z,68.29
2022-07-30T08:12:39.161Z,70.31
2022-07-30T08:15:39.429Z,65.68
2022-07-30T08:18:27.261Z,66.35
2022-07-30T08:21:16.620Z,67.57
2022-07-30T08:23:44.829Z,65.98
2022-07-30T08:26:14.341Z,67.10
2022-07-30T08:28:44.058Z,63.84
2022-07-30T08:31:13.092Z,65.07
2022-07-30T08:33:41.143Z,64.25
2022-07-30T08:36:10.348Z,62.90
2022-07-30T08:38:39.937Z,63.80
2022-07-30T08:41:09.117Z,62.74
2022-07-30T08:43:39.053Z,63.70
2022-07-30T08:46:10.471Z,63.11
2022-07-30T08:48:51.049Z,62.53
2022-07-30T08:51:20.628Z,64.61
2022-07-30T08:54:12.132Z,61.58
2022-07-30T08:56:41.729Z,63.84
2022-07-30T08:59:11.371Z,63.77
2022-07-30T09:01:40.259Z,63.43
2022-07-30T09:04:08.370Z,62.92
2022-07-30T09:06:37.591Z,62.27
2022-07-30T09:09:06.867Z,62.77
2022-07-30T09:11:36.300Z,62.29
2022-07-30T09:14:13.113Z,59.82
2022-07-30T09:16:42.437Z,59.92
2022-07-30T09:19:16.045Z,60.17
2022-07-30T09:21:55.775Z,61.53
2022-07-30T09:24:42.867Z,60.05
2022-07-30T09:27:45.324Z,58.44
2022-07-30T09:30:47.461Z,59.13
2022-07-30T09:33:38.958Z,58.77
2022-07-30T09:36:33.055Z,57.70
2022-07-30T09:39:32.195Z,58.06
2022-07-30T09:42:19.530Z,59.87
2022-07-30T09:44:47.871Z,57.21
2022-07-30T09:50:11.629Z,55.85
2022-07-30T09:52:44.313Z,54.79
2022-07-30T09:55:31.309Z,56.16
2022-07-30T09:58:03.005Z,56.56
2022-07-30T10:00:33.140Z,56.43
2022-07-30T10:03:22.031Z,55.47
2022-07-30T10:06:33.825Z,56.98
2022-07-30T10:09:13.888Z,57.40
2022-07-30T10:11:46.001Z,53.88
2022-07-30T10:14:15.381Z,54.26
2022-07-30T10:16:44.262Z,54.72
2022-07-30T10:19:18.005Z,52.38
2022-07-30T10:22:10.353Z,54.03
2022-07-30T10:25:19.052Z,51.02
2022-07-30T10:28:18.542Z,51.16
2022-07-30T10:30:50.281Z,53.20
2022-07-30T10:33:36.190Z,52.34
2022-07-30T10:36:08.914Z,53.02
2022-07-30T10:38:41.688Z,53.99
2022-07-30T10:41:16.498Z,51.41
2022-07-30T10:44:07.741Z,52.35
2022-07-30T10:46:45.680Z,50.70
2022-07-30T10:49:19.068Z,51.16
2022-07-30T10:51:49.282Z,48.86
2022-07-30T10:54:40.115Z,48.79
2022-07-30T10:57:15.216Z,49.52
2022-07-30T11:00:12.131Z,49.12
2022-07-30T11:03:15.042Z,49.32
2022-07-30T11:05:45.871Z,46.21
2022-07-30T11:08:42.876Z,45.81
2022-07-30T11:12:02.037Z,48.41
2022-07-30T11:15:06.546Z,42.96
2022-07-30T11:18:15.058Z,43.34
2022-07-30T11:20:48.863Z,45.14
2022-07-30T11:23:39.214Z,45.33
2022-07-30T11:26:08.109Z,43.60
2022-07-30T11:28:44.510Z,43.85
2022-07-30T11:31:56.590Z,44.46
2022-07-30T11:34:27.954Z,45.23
2022-07-30T11:37:18.534Z,44.34
2022-07-30T11:40:12.586Z,44.50
2022-07-30T11:42:42.617Z,45.42
2022-07-30T11:45:30.649Z,46.15
2022-07-30T11:48:01.318Z,45.87
2022-07-30T11:50:31.948Z,47.58
2022-07-30T11:53:01.825Z,48.00
2022-07-30T11:55:31.420Z,46.45
2022-07-30T11:58:00.624Z,49.20
2022-07-30T12:00:35.908Z,46.99
2022-07-30T12:03:11.468Z,46.99
2022-07-30T12:05:40.115Z,45.90
2022-07-30T12:08:08.566Z,46.10
2022-07-30T12:10:59.584Z,46.06
2022-07-30T12:13:44.017Z,44.86
2022-07-30T12:16:42.441Z,45.29
2022-07-30T12:19:11.875Z,45.02
2022-07-30T12:21:39.995Z,40.78
2022-07-30T12:24:09.970Z,41.83
2022-07-30T12:26:38.039Z,43.40
2022-07-30T12:29:07.354Z,40.80
2022-07-30T12:31:38.362Z,43.51
2022-07-30T12:34:21.804Z,43.04
2022-07-30T12:36:50.105Z,42.21
2022-07-30T12:39:22.309Z,40.06
2022-07-30T12:41:53.171Z,41.03
2022-07-30T12:44:38.520Z,41.44
2022-07-30T12:47:08.332Z,41.79
2022-07-30T12:49:48.902Z,41.62
2022-07-30T12:52:27.652Z,41.67
2022-07-30T12:55:09.794Z,39.09
2022-07-30T12:57:54.503Z,40.51
2022-07-30T13:00:23.037Z,40.51
2022-07-30T13:02:51.174Z,37.63
2022-07-30T13:05:20.798Z,41.27
2022-07-30T13:07:59.865Z,38.75
2022-07-30T13:10:31.108Z,40.46
2022-07-30T13:12:59.806Z,38.78
2022-07-30T13:15:27.915Z,41.92
2022-07-30T13:17:56.117Z,40.89
2022-07-30T13:20:25.749Z,39.67
2022-07-30T13:22:53.819Z,37.27
2022-07-30T13:25:22.467Z,37.70
2022-07-30T13:27:50.532Z,40.65
2022-07-30T13:30:18.600Z,36.37
2022-07-30T13:32:46.791Z,36.11
2022-07-30T13:35:15.183Z,39.18
2022-07-30T13:37:44.603Z,37.37
2022-07-30T13:40:12.858Z,35.16
2022-07-30T13:42:40.958Z,39.29
2022-07-30T13:45:10.174Z,34.43
2022-07-30T13:47:38.247Z,38.34
2022-07-30T13:50:06.988Z,36.99
2022-07-30T13:52:35.102Z,36.48
2022-07-30T13:55:04.774Z,35.72
2022-07-30T13:57:32.836Z,37.26
2022-07-30T14:00:00.908Z,36.63
2022-07-30T14:02:32.384Z,36.75
2022-07-30T14:05:00.429Z,36.10
2022-07-30T14:07:28.557Z,34.19
2022-07-30T14:09:57.043Z,37.04
2022-07-30T14:12:26.725Z,32.52
2022-07-30T14:14:54.882Z,33.04
2022-07-30T14:17:23.089Z,32.92
2022-07-30T14:19:54.338Z,33.47
2022-07-30T14:22:22.464Z,32.58
2022-07-30T14:24:50.605Z,32.53
2022-07-30T14:27:20.496Z,32.46
2022-07-30T14:29:50.455Z,32.98
2022-07-30T14:32:18.552Z,33.16
2022-07-30T14:34:49.386Z,31.94
2022-07-30T14:37:18.131Z,35.02
2022-07-30T14:39:46.216Z,33.01
2022-07-30T14:42:14.378Z,32.08
2022-07-30T14:44:42.461Z,30.78
2022-07-30T14:47:11.920Z,30.43
2022-07-30T14:49:40.006Z,33.40
2022-07-30T14:52:08.122Z,30.47
2022-07-30T14:54:36.258Z,32.22
2022-07-30T14:57:04.988Z,30.58
2022-07-30T14:59:33.275Z,32.54
2022-07-30T15:02:01.663Z,34.65
2022-07-30T15:04:31.652Z,34.24
2022-07-30T15:06:59.794Z,32.18
2022-07-30T15:09:29.452Z,30.28
2022-07-30T15:12:08.640Z,29.54
2022-07-30T15:14:38.786Z,29.39
2022-07-30T15:17:08.205Z,31.21
2022-07-30T15:19:37.658Z,32.49
2022-07-30T15:22:18.230Z,29.98
2022-07-30T15:24:46.346Z,30.48
2022-07-30T15:27:14.397Z,32.34
2022-07-30T15:29:42.852Z,27.88
2022-07-30T15:32:10.947Z,31.73
2022-07-30T15:34:40.351Z,31.86
2022-07-30T15:37:08.503Z,29.65
2022-07-30T15:39:36.766Z,31.21
2022-07-30T15:42:06.365Z,30.80
2022-07-30T15:44:35.116Z,30.31
2022-07-30T15:47:03.407Z,31.71
2022-07-30T15:49:32.438Z,30.14
2022-07-30T15:52:02.320Z,29.83
2022-07-30T15:54:30.673Z,29.90
2022-07-30T15:57:01.483Z,30.09
2022-07-30T15:59:30.557Z,33.92
2022-07-30T16:01:58.942Z,27.97
2022-07-30T16:04:31.923Z,31.20
2022-07-30T16:07:03.391Z,30.64
2022-07-30T16:09:31.562Z,31.80
2022-07-30T16:12:00.302Z,31.12
2022-07-30T16:14:28.655Z,29.43
2022-07-30T16:16:57.229Z,28.76
2022-07-30T16:19:25.373Z,29.54
2022-07-30T16:21:53.584Z,29.92
2022-07-30T16:24:23.188Z,32.04
2022-07-30T16:26:51.315Z,30.45
2022-07-30T16:29:19.744Z,32.85
2022-07-30T16:31:47.897Z,30.55
2022-07-30T16:34:16.093Z,32.01
2022-07-30T16:36:44.215Z,31.54
2022-07-30T16:39:12.285Z,30.69
2022-07-30T16:41:41.923Z,32.20
2022-07-30T16:44:10.033Z,31.33
2022-07-30T16:46:38.787Z,32.95
2022-07-30T16:49:07.528Z,33.12
2022-07-30T16:51:35.720Z,32.07
2022-07-30T16:54:03.863Z,31.77
2022-07-30T16:56:31.996Z,31.60
2022-07-30T16:59:01.482Z,30.13
2022-07-30T17:01:29.794Z,31.00
2022-07-30T17:03:58.457Z,31.36
2022-07-30T17:06:26.568Z,29.94
2022-07-30T17:08:54.612Z,32.03
2022-07-30T17:11:46.766Z,30.48
2022-07-30T17:14:13.578Z,31.51
2022-07-30T17:16:42.164Z,30.94
2022-07-30T17:19:10.462Z,31.72
2022-07-30T17:21:39.038Z,32.94
2022-07-30T17:24:11.434Z,32.08
2022-07-30T17:26:43.141Z,32.31
2022-07-30T17:29:14.944Z,31.89
2022-07-30T17:31:44.521Z,32.39
2022-07-30T17:34:14.037Z,33.34
2022-07-30T17:36:47.018Z,32.03
2022-07-30T17:40:27.824Z,33.63
2022-07-30T17:42:10.466Z,32.33
2022-07-30T17:44:41.172Z,33.51
2022-07-30T17:47:14.007Z,32.33
2022-07-30T17:49:43.451Z,34.11
2022-07-30T17:52:11.801Z,34.20
2022-07-30T17:54:39.924Z,34.90
2022-07-30T17:57:08.019Z,34.41
2022-07-30T17:59:36.202Z,34.00
2022-07-30T18:02:31.116Z,35.15
2022-07-30T18:04:59.347Z,32.72
2022-07-30T18:07:28.575Z,33.48
2022-07-30T18:09:56.689Z,33.59
2022-07-30T18:12:24.762Z,33.15
2022-07-30T18:14:53.003Z,33.92
2022-07-30T18:17:21.128Z,35.40
2022-07-30T18:19:50.779Z,34.38
2022-07-30T18:22:29.443Z,35.22
2022-07-30T18:25:00.280Z,35.82
2022-07-30T18:27:28.564Z,34.91
2022-07-30T18:29:56.677Z,35.58
2022-07-30T18:32:25.121Z,34.41
2022-07-30T18:34:54.617Z,35.44
2022-07-30T18:37:22.734Z,34.55
2022-07-30T18:39:50.859Z,34.71
2022-07-30T18:42:19.342Z,35.68
2022-07-30T18:44:47.460Z,37.11
2022-07-30T18:47:15.488Z,37.90
2022-07-30T18:49:43.649Z,37.91
2022-07-30T18:52:13.167Z,39.55
2022-07-30T18:54:41.439Z,39.73
2022-07-30T18:57:14.008Z,40.62
2022-07-30T18:59:42.942Z,41.11
2022-07-30T19:02:11.526Z,41.32
2022-07-30T19:04:39.730Z,41.88
2022-07-30T19:07:08.376Z,42.44
2022-07-30T19:09:37.978Z,42.23
2022-07-30T19:12:06.729Z,42.50
2022-07-30T19:14:35.024Z,43.05
2022-07-30T19:17:03.177Z,42.62
2022-07-30T19:19:42.436Z,42.90
2022-07-30T19:22:10.688Z,43.13
2022-07-30T19:24:40.186Z,43.38
2022-07-30T19:27:13.727Z,43.92
2022-07-30T19:29:43.502Z,44.62
2022-07-30T19:32:11.747Z,44.56
2022-07-30T19:34:40.713Z,44.65
2022-07-30T19:37:08.850Z,44.62
2022-07-30T19:39:37.100Z,45.26
2022-07-30T19:42:27.911Z,45.59
2022-07-30T19:44:56.030Z,45.37
2022-07-30T19:47:26.164Z,45.50
2022-07-30T19:49:54.701Z,45.77
2022-07-30T19:52:25.527Z,46.06
2022-07-30T19:54:54.436Z,46.02
2022-07-30T19:57:22.520Z,45.99
2022-07-30T19:59:59.963Z,46.85
2022-07-30T20:02:40.377Z,46.90
2022-07-30T20:05:11.708Z,47.10
2022-07-30T20:07:43.161Z,47.18
2022-07-30T20:10:12.764Z,47.13
2022-07-30T20:12:41.977Z,47.90
2022-07-30T20:15:14.761Z,48.10
2022-07-30T20:17:43.095Z,48.40
2022-07-30T20:20:12.596Z,48.31
2022-07-30T20:22:40.748Z,49.15
2022-07-30T20:25:10.043Z,48.97
2022-07-30T20:27:40.360Z,48.67
2022-07-30T20:30:12.204Z,48.79
2022-07-30T20:32:46.710Z,48.63
2022-07-30T20:35:15.289Z,48.70
2022-07-30T20:37:55.194Z,48.88
2022-07-30T20:40:26.527Z,49.40
2022-07-30T20:42:55.541Z,50.24
2022-07-30T20:45:40.199Z,50.35
2022-07-30T20:48:17.038Z,50.68
2022-07-30T20:50:46.108Z,50.65
2022-07-30T20:53:17.455Z,50.83
2022-07-30T20:55:45.508Z,51.98
2022-07-30T20:58:16.676Z,52.75
2022-07-30T21:00:49.874Z,52.17
2022-07-30T21:03:21.242Z,53.14
2022-07-30T21:05:52.534Z,52.59
2022-07-30T21:08:21.419Z,52.55
2022-07-30T21:10:55.114Z,53.04
2022-07-30T21:13:24.894Z,53.27
2022-07-30T21:16:02.659Z,53.57
2022-07-30T21:18:32.809Z,54.11
2022-07-30T21:21:05.423Z,53.46
2022-07-30T21:23:34.290Z,53.15
2022-07-30T21:26:07.080Z,52.62
2022-07-30T21:28:38.776Z,53.84
2022-07-30T21:31:11.004Z,54.37
2022-07-30T21:33:39.274Z,54.59
2022-07-30T21:36:10.382Z,54.10
2022-07-30T21:38:41.822Z,55.04
2022-07-30T21:41:13.804Z,56.10
2022-07-30T21:43:43.448Z,55.25
2022-07-30T21:46:13.539Z,55.11
2022-07-30T21:48:43.241Z,54.83
2022-07-30T21:51:11.591Z,54.83
2022-07-30T21:53:45.276Z,54.72
2022-07-30T21:56:16.170Z,54.39
2022-07-30T21:58:45.277Z,55.72
2022-07-30T22:01:18.625Z,56.06
2022-07-30T22:04:02.640Z,56.77
2022-07-30T22:06:33.785Z,56.67
2022-07-30T22:09:03.083Z,55.62
2022-07-30T22:11:42.759Z,56.82
2022-07-30T22:14:13.660Z,56.40
2022-07-30T22:16:46.419Z,56.41
2022-07-30T22:19:15.397Z,56.44
2022-07-30T22:21:46.416Z,56.65
2022-07-30T22:24:29.680Z,57.02
2022-07-30T22:27:00.970Z,57.08
2022-07-30T22:29:34.046Z,57.48
2022-07-30T22:32:06.446Z,58.29
2022-07-30T22:34:36.209Z,57.97
2022-07-30T22:37:04.418Z,59.20
2022-07-30T22:42:26.957Z,59.77
2022-07-30T22:44:56.632Z,59.32
2022-07-30T22:47:51.101Z,59.64
2022-07-30T22:53:23.504Z,59.93
2022-07-30T22:55:50.942Z,59.82
2022-07-30T22:58:19.531Z,60.09
2022-07-30T23:00:50.194Z,60.17
2022-07-30T23:03:19.630Z,59.77
2022-07-30T23:05:55.066Z,60.92
2022-07-30T23:08:30.008Z,60.61
2022-07-30T23:10:59.621Z,60.74
2022-07-30T23:12:30.585Z,59.80
2022-07-30T23:12:31.832Z,59.35
2022-07-30T23:13:28.543Z,60.80
2022-07-30T23:15:56.871Z,61.84
2022-07-30T23:18:26.383Z,60.94
2022-07-30T23:20:59.906Z,61.66
2022-07-30T23:23:30.681Z,61.38
2022-07-30T23:26:01.894Z,62.42
2022-07-30T23:28:30.174Z,62.08
2022-07-30T23:30:58.341Z,61.64
2022-07-30T23:33:27.967Z,62.06
2022-07-30T23:35:56.671Z,61.86
2022-07-30T23:38:25.295Z,61.72
2022-07-30T23:40:53.457Z,62.57
2022-07-30T23:43:21.607Z,63.05
2022-07-30T23:45:49.665Z,63.57
2022-07-30T23:48:17.755Z,63.71
2022-07-30T23:50:47.217Z,63.44
2022-07-30T23:53:15.447Z,63.86
2022-07-30T23:55:46.956Z,63.64
2022-07-30T23:58:15.276Z,62.84
